sensor_id;sensor_type;location;lat;lon;timestamp;P1;durP1;ratioP1;P2;durP2;ratioP2
52776;SDS011;38656;54.260;20.822;2023-04-24T00:00:57;16.63;;;12.23;;
52776;SDS011;38656;54.260;20.822;2023-04-24T00:03:25;17.48;;;12.48;;
52776;SDS011;38656;54.260;20.822;2023-04-24T00:05:53;17.50;;;11.05;;
52776;SDS011;38656;54.260;20.822;2023-04-24T00:08:20;18.00;;;11.13;;
52776;SDS011;38656;54.260;20.822;2023-04-24T00:10:47;11.98;;;9.98;;
52776;SDS011;38656;54.260;20.822;2023-04-24T00:13:13;27.08;;;21.73;;
52776;SDS011;38656;54.260;20.822;2023-04-24T00:15:39;27.00;;;20.33;;
52776;SDS011;38656;54.260;20.822;2023-04-24T00:18:06;13.68;;;8.05;;
52776;SDS011;38656;54.260;20.822;2023-04-24T00:20:32;8.60;;;6.00;;
52776;SDS011;38656;54.260;20.822;2023-04-24T00:23:00;7.75;;;5.60;;
52776;SDS011;38656;54.260;20.822;2023-04-24T00:25:26;8.93;;;6.13;;
52776;SDS011;38656;54.260;20.822;2023-04-24T00:27:52;6.28;;;4.70;;
52776;SDS011;38656;54.260;20.822;2023-04-24T00:30:18;5.93;;;5.32;;
52776;SDS011;38656;54.260;20.822;2023-04-24T00:32:45;6.35;;;5.53;;
52776;SDS011;38656;54.260;20.822;2023-04-24T00:35:11;11.88;;;5.70;;
52776;SDS011;38656;54.260;20.822;2023-04-24T00:37:37;8.40;;;5.93;;
52776;SDS011;38656;54.260;20.822;2023-04-24T00:40:04;7.75;;;6.55;;
52776;SDS011;38656;54.260;20.822;2023-04-24T00:42:31;8.57;;;6.55;;
52776;SDS011;38656;54.260;20.822;2023-04-24T00:44:58;10.15;;;6.22;;
52776;SDS011;38656;54.260;20.822;2023-04-24T00:47:25;11.27;;;7.88;;
52776;SDS011;38656;54.260;20.822;2023-04-24T00:49:53;21.48;;;15.15;;
52776;SDS011;38656;54.260;20.822;2023-04-24T00:52:19;12.85;;;10.95;;
52776;SDS011;38656;54.260;20.822;2023-04-24T00:54:49;18.42;;;12.77;;
52776;SDS011;38656;54.260;20.822;2023-04-24T00:57:15;16.17;;;12.88;;
52776;SDS011;38656;54.260;20.822;2023-04-24T00:59:42;16.20;;;11.50;;
52776;SDS011;38656;54.260;20.822;2023-04-24T01:02:09;14.90;;;12.05;;
52776;SDS011;38656;54.260;20.822;2023-04-24T01:04:36;22.02;;;11.38;;
52776;SDS011;38656;54.260;20.822;2023-04-24T01:07:03;19.25;;;12.75;;
52776;SDS011;38656;54.260;20.822;2023-04-24T01:09:35;15.63;;;12.40;;
52776;SDS011;38656;54.260;20.822;2023-04-24T01:12:06;17.73;;;13.10;;
52776;SDS011;38656;54.260;20.822;2023-04-24T01:14:34;15.55;;;12.23;;
52776;SDS011;38656;54.260;20.822;2023-04-24T01:17:00;11.65;;;9.52;;
52776;SDS011;38656;54.260;20.822;2023-04-24T01:19:26;13.40;;;8.45;;
52776;SDS011;38656;54.260;20.822;2023-04-24T01:21:53;12.00;;;8.75;;
52776;SDS011;38656;54.260;20.822;2023-04-24T01:24:23;11.55;;;10.05;;
52776;SDS011;38656;54.260;20.822;2023-04-24T01:26:49;11.60;;;8.95;;
52776;SDS011;38656;54.260;20.822;2023-04-24T01:29:15;12.15;;;9.18;;
52776;SDS011;38656;54.260;20.822;2023-04-24T01:31:41;15.98;;;9.82;;
52776;SDS011;38656;54.260;20.822;2023-04-24T01:34:08;16.77;;;9.38;;
52776;SDS011;38656;54.260;20.822;2023-04-24T01:36:35;11.85;;;9.70;;
52776;SDS011;38656;54.260;20.822;2023-04-24T01:39:02;11.65;;;9.13;;
52776;SDS011;38656;54.260;20.822;2023-04-24T01:41:29;12.63;;;8.73;;
52776;SDS011;38656;54.260;20.822;2023-04-24T01:43:56;9.30;;;8.27;;
52776;SDS011;38656;54.260;20.822;2023-04-24T01:46:24;12.63;;;8.45;;
52776;SDS011;38656;54.260;20.822;2023-04-24T01:48:51;12.95;;;7.88;;
52776;SDS011;38656;54.260;20.822;2023-04-24T01:51:18;11.57;;;8.32;;
52776;SDS011;38656;54.260;20.822;2023-04-24T01:53:44;9.07;;;7.47;;
52776;SDS011;38656;54.260;20.822;2023-04-24T01:56:10;15.43;;;11.05;;
52776;SDS011;38656;54.260;20.822;2023-04-24T01:58:37;21.85;;;8.77;;
52776;SDS011;38656;54.260;20.822;2023-04-24T02:01:03;12.80;;;8.98;;
52776;SDS011;38656;54.260;20.822;2023-04-24T02:03:31;10.65;;;8.15;;
52776;SDS011;38656;54.260;20.822;2023-04-24T02:05:57;10.10;;;7.22;;
52776;SDS011;38656;54.260;20.822;2023-04-24T02:08:23;10.93;;;9.82;;
52776;SDS011;38656;54.260;20.822;2023-04-24T02:10:50;13.07;;;11.38;;
52776;SDS011;38656;54.260;20.822;2023-04-24T02:13:16;17.35;;;12.48;;
52776;SDS011;38656;54.260;20.822;2023-04-24T02:15:42;16.63;;;10.65;;
52776;SDS011;38656;54.260;20.822;2023-04-24T02:18:08;12.23;;;8.27;;
52776;SDS011;38656;54.260;20.822;2023-04-24T02:20:36;12.95;;;10.63;;
52776;SDS011;38656;54.260;20.822;2023-04-24T02:23:02;13.43;;;9.93;;
52776;SDS011;38656;54.260;20.822;2023-04-24T02:25:28;14.38;;;10.30;;
52776;SDS011;38656;54.260;20.822;2023-04-24T02:27:55;21.83;;;9.70;;
52776;SDS011;38656;54.260;20.822;2023-04-24T02:30:21;9.15;;;8.27;;
52776;SDS011;38656;54.260;20.822;2023-04-24T02:32:47;10.75;;;8.30;;
52776;SDS011;38656;54.260;20.822;2023-04-24T02:35:14;10.30;;;9.07;;
52776;SDS011;38656;54.260;20.822;2023-04-24T02:37:40;12.68;;;8.65;;
52776;SDS011;38656;54.260;20.822;2023-04-24T02:40:06;9.50;;;7.57;;
52776;SDS011;38656;54.260;20.822;2023-04-24T02:42:33;8.35;;;7.55;;
52776;SDS011;38656;54.260;20.822;2023-04-24T02:44:59;10.57;;;9.07;;
52776;SDS011;38656;54.260;20.822;2023-04-24T02:47:26;10.95;;;7.85;;
52776;SDS011;38656;54.260;20.822;2023-04-24T02:49:52;11.32;;;8.40;;
52776;SDS011;38656;54.260;20.822;2023-04-24T02:52:18;13.02;;;8.02;;
52776;SDS011;38656;54.260;20.822;2023-04-24T02:54:44;11.32;;;8.35;;
52776;SDS011;38656;54.260;20.822;2023-04-24T02:57:10;10.95;;;9.00;;
52776;SDS011;38656;54.260;20.822;2023-04-24T02:59:36;9.43;;;7.55;;
52776;SDS011;38656;54.260;20.822;2023-04-24T03:02:03;9.75;;;7.00;;
52776;SDS011;38656;54.260;20.822;2023-04-24T03:04:29;11.02;;;6.95;;
52776;SDS011;38656;54.260;20.822;2023-04-24T03:06:55;9.40;;;6.80;;
52776;SDS011;38656;54.260;20.822;2023-04-24T03:09:21;41.55;;;23.38;;
52776;SDS011;38656;54.260;20.822;2023-04-24T03:11:48;51.05;;;24.80;;
52776;SDS011;38656;54.260;20.822;2023-04-24T03:14:14;65.18;;;33.70;;
52776;SDS011;38656;54.260;20.822;2023-04-24T03:16:41;60.35;;;34.38;;
52776;SDS011;38656;54.260;20.822;2023-04-24T03:19:07;48.28;;;29.35;;
52776;SDS011;38656;54.260;20.822;2023-04-24T03:21:33;59.30;;;26.13;;
52776;SDS011;38656;54.260;20.822;2023-04-24T03:24:00;28.33;;;16.88;;
52776;SDS011;38656;54.260;20.822;2023-04-24T03:26:27;15.20;;;11.00;;
52776;SDS011;38656;54.260;20.822;2023-04-24T03:28:53;18.30;;;12.32;;
52776;SDS011;38656;54.260;20.822;2023-04-24T03:31:19;15.85;;;9.60;;
52776;SDS011;38656;54.260;20.822;2023-04-24T03:33:46;13.88;;;8.98;;
52776;SDS011;38656;54.260;20.822;2023-04-24T03:36:12;19.38;;;14.20;;
52776;SDS011;38656;54.260;20.822;2023-04-24T03:38:38;15.73;;;12.93;;
52776;SDS011;38656;54.260;20.822;2023-04-24T03:41:04;31.30;;;18.63;;
52776;SDS011;38656;54.260;20.822;2023-04-24T03:43:31;63.35;;;28.27;;
52776;SDS011;38656;54.260;20.822;2023-04-24T03:45:59;66.72;;;35.58;;
52776;SDS011;38656;54.260;20.822;2023-04-24T03:48:25;66.05;;;31.67;;
52776;SDS011;38656;54.260;20.822;2023-04-24T03:50:51;54.88;;;30.95;;
52776;SDS011;38656;54.260;20.822;2023-04-24T03:53:18;62.60;;;28.48;;
52776;SDS011;38656;54.260;20.822;2023-04-24T03:55:44;51.45;;;24.25;;
52776;SDS011;38656;54.260;20.822;2023-04-24T03:58:11;42.45;;;23.52;;
52776;SDS011;38656;54.260;20.822;2023-04-24T04:00:39;47.65;;;21.70;;
52776;SDS011;38656;54.260;20.822;2023-04-24T04:03:06;165.18;;;55.05;;
52776;SDS011;38656;54.260;20.822;2023-04-24T04:05:32;170.40;;;53.28;;
52776;SDS011;38656;54.260;20.822;2023-04-24T04:07:58;58.08;;;32.55;;
52776;SDS011;38656;54.260;20.822;2023-04-24T04:10:25;75.38;;;37.03;;
52776;SDS011;38656;54.260;20.822;2023-04-24T04:12:51;140.88;;;49.78;;
52776;SDS011;38656;54.260;20.822;2023-04-24T04:15:17;174.85;;;55.78;;
52776;SDS011;38656;54.260;20.822;2023-04-24T04:17:43;198.13;;;59.72;;
52776;SDS011;38656;54.260;20.822;2023-04-24T04:20:10;253.50;;;76.30;;
52776;SDS011;38656;54.260;20.822;2023-04-24T04:22:37;419.30;;;134.52;;
52776;SDS011;38656;54.260;20.822;2023-04-24T04:25:03;443.67;;;144.13;;
52776;SDS011;38656;54.260;20.822;2023-04-24T04:27:30;397.10;;;128.18;;
52776;SDS011;38656;54.260;20.822;2023-04-24T04:30:00;282.17;;;84.28;;
52776;SDS011;38656;54.260;20.822;2023-04-24T04:32:30;248.30;;;69.70;;
52776;SDS011;38656;54.260;20.822;2023-04-24T04:34:58;214.65;;;63.72;;
52776;SDS011;38656;54.260;20.822;2023-04-24T04:37:31;163.07;;;53.15;;
52776;SDS011;38656;54.260;20.822;2023-04-24T04:39:58;123.65;;;44.70;;
52776;SDS011;38656;54.260;20.822;2023-04-24T04:42:25;116.53;;;37.88;;
52776;SDS011;38656;54.260;20.822;2023-04-24T04:44:52;94.07;;;29.35;;
52776;SDS011;38656;54.260;20.822;2023-04-24T04:47:18;48.95;;;21.70;;
52776;SDS011;38656;54.260;20.822;2023-04-24T04:49:50;33.03;;;15.32;;
52776;SDS011;38656;54.260;20.822;2023-04-24T04:52:17;30.17;;;13.98;;
52776;SDS011;38656;54.260;20.822;2023-04-24T04:54:44;26.38;;;11.40;;
52776;SDS011;38656;54.260;20.822;2023-04-24T04:57:11;23.20;;;10.70;;
52776;SDS011;38656;54.260;20.822;2023-04-24T04:59:38;19.00;;;9.93;;
52776;SDS011;38656;54.260;20.822;2023-04-24T05:02:06;14.32;;;8.20;;
52776;SDS011;38656;54.260;20.822;2023-04-24T05:04:32;13.35;;;7.32;;
52776;SDS011;38656;54.260;20.822;2023-04-24T05:06:58;9.98;;;6.82;;
52776;SDS011;38656;54.260;20.822;2023-04-24T05:09:24;12.43;;;6.45;;
52776;SDS011;38656;54.260;20.822;2023-04-24T05:11:52;10.65;;;6.28;;
52776;SDS011;38656;54.260;20.822;2023-04-24T05:14:18;10.20;;;6.85;;
52776;SDS011;38656;54.260;20.822;2023-04-24T05:16:45;7.60;;;6.35;;
52776;SDS011;38656;54.260;20.822;2023-04-24T05:19:11;6.93;;;6.18;;
52776;SDS011;38656;54.260;20.822;2023-04-24T05:21:39;11.07;;;6.80;;
52776;SDS011;38656;54.260;20.822;2023-04-24T05:24:05;12.73;;;6.75;;
52776;SDS011;38656;54.260;20.822;2023-04-24T05:26:32;13.05;;;7.28;;
52776;SDS011;38656;54.260;20.822;2023-04-24T05:28:58;12.60;;;6.63;;
52776;SDS011;38656;54.260;20.822;2023-04-24T05:31:25;13.57;;;7.10;;
52776;SDS011;38656;54.260;20.822;2023-04-24T05:33:51;13.23;;;6.82;;
52776;SDS011;38656;54.260;20.822;2023-04-24T05:36:17;10.02;;;6.95;;
52776;SDS011;38656;54.260;20.822;2023-04-24T05:38:44;33.13;;;8.13;;
52776;SDS011;38656;54.260;20.822;2023-04-24T05:41:10;24.95;;;7.25;;
52776;SDS011;38656;54.260;20.822;2023-04-24T05:43:36;9.43;;;6.72;;
52776;SDS011;38656;54.260;20.822;2023-04-24T05:46:03;11.85;;;6.80;;
52776;SDS011;38656;54.260;20.822;2023-04-24T05:48:29;8.10;;;6.55;;
52776;SDS011;38656;54.260;20.822;2023-04-24T05:50:55;12.75;;;7.05;;
52776;SDS011;38656;54.260;20.822;2023-04-24T05:53:22;14.57;;;7.05;;
52776;SDS011;38656;54.260;20.822;2023-04-24T05:55:48;10.63;;;6.35;;
52776;SDS011;38656;54.260;20.822;2023-04-24T05:58:14;9.25;;;6.57;;
52776;SDS011;38656;54.260;20.822;2023-04-24T06:00:40;10.68;;;6.20;;
52776;SDS011;38656;54.260;20.822;2023-04-24T06:03:09;14.75;;;7.25;;
52776;SDS011;38656;54.260;20.822;2023-04-24T06:05:35;16.63;;;7.00;;
52776;SDS011;38656;54.260;20.822;2023-04-24T06:08:01;15.00;;;9.65;;
52776;SDS011;38656;54.260;20.822;2023-04-24T06:10:28;14.77;;;7.80;;
52776;SDS011;38656;54.260;20.822;2023-04-24T06:12:54;13.00;;;8.95;;
52776;SDS011;38656;54.260;20.822;2023-04-24T06:15:26;11.93;;;8.50;;
52776;SDS011;38656;54.260;20.822;2023-04-24T06:17:58;11.65;;;6.60;;
52776;SDS011;38656;54.260;20.822;2023-04-24T06:20:25;15.85;;;7.10;;
52776;SDS011;38656;54.260;20.822;2023-04-24T06:22:51;11.48;;;6.95;;
52776;SDS011;38656;54.260;20.822;2023-04-24T06:25:17;16.63;;;7.55;;
52776;SDS011;38656;54.260;20.822;2023-04-24T06:27:44;8.52;;;7.38;;
52776;SDS011;38656;54.260;20.822;2023-04-24T06:30:10;8.00;;;7.20;;
52776;SDS011;38656;54.260;20.822;2023-04-24T06:32:37;8.73;;;7.45;;
52776;SDS011;38656;54.260;20.822;2023-04-24T06:35:03;11.05;;;7.25;;
52776;SDS011;38656;54.260;20.822;2023-04-24T06:37:31;11.70;;;6.47;;
52776;SDS011;38656;54.260;20.822;2023-04-24T06:39:58;14.30;;;6.63;;
52776;SDS011;38656;54.260;20.822;2023-04-24T06:42:24;14.63;;;7.15;;
52776;SDS011;38656;54.260;20.822;2023-04-24T06:44:50;12.13;;;6.65;;
52776;SDS011;38656;54.260;20.822;2023-04-24T06:47:17;9.88;;;6.78;;
52776;SDS011;38656;54.260;20.822;2023-04-24T06:49:43;9.10;;;7.40;;
52776;SDS011;38656;54.260;20.822;2023-04-24T06:52:09;11.52;;;6.75;;
52776;SDS011;38656;54.260;20.822;2023-04-24T06:54:36;21.92;;;6.88;;
52776;SDS011;38656;54.260;20.822;2023-04-24T06:57:02;14.75;;;7.30;;
52776;SDS011;38656;54.260;20.822;2023-04-24T06:59:28;12.32;;;6.57;;
52776;SDS011;38656;54.260;20.822;2023-04-24T07:01:55;7.28;;;6.07;;
52776;SDS011;38656;54.260;20.822;2023-04-24T07:04:21;11.32;;;7.20;;
52776;SDS011;38656;54.260;20.822;2023-04-24T07:06:49;7.05;;;6.35;;
52776;SDS011;38656;54.260;20.822;2023-04-24T07:09:16;13.18;;;6.97;;
52776;SDS011;38656;54.260;20.822;2023-04-24T07:11:43;18.90;;;6.63;;
52776;SDS011;38656;54.260;20.822;2023-04-24T07:14:10;12.70;;;7.10;;
52776;SDS011;38656;54.260;20.822;2023-04-24T07:16:37;18.40;;;7.63;;
52776;SDS011;38656;54.260;20.822;2023-04-24T07:19:03;7.82;;;6.97;;
52776;SDS011;38656;54.260;20.822;2023-04-24T07:21:30;8.20;;;6.15;;
52776;SDS011;38656;54.260;20.822;2023-04-24T07:23:57;13.05;;;5.57;;
52776;SDS011;38656;54.260;20.822;2023-04-24T07:26:23;8.88;;;5.07;;
52776;SDS011;38656;54.260;20.822;2023-04-24T07:28:50;12.63;;;5.57;;
52776;SDS011;38656;54.260;20.822;2023-04-24T07:31:16;6.70;;;5.47;;
52776;SDS011;38656;54.260;20.822;2023-04-24T07:33:43;10.30;;;5.80;;
52776;SDS011;38656;54.260;20.822;2023-04-24T07:36:09;11.40;;;5.95;;
52776;SDS011;38656;54.260;20.822;2023-04-24T07:38:40;6.03;;;5.43;;
52776;SDS011;38656;54.260;20.822;2023-04-24T07:41:07;6.75;;;5.32;;
52776;SDS011;38656;54.260;20.822;2023-04-24T07:43:34;5.35;;;4.95;;
52776;SDS011;38656;54.260;20.822;2023-04-24T07:46:00;7.13;;;4.93;;
52776;SDS011;38656;54.260;20.822;2023-04-24T07:48:26;5.07;;;4.65;;
52776;SDS011;38656;54.260;20.822;2023-04-24T07:50:53;12.13;;;4.70;;
52776;SDS011;38656;54.260;20.822;2023-04-24T07:53:19;4.50;;;4.10;;
52776;SDS011;38656;54.260;20.822;2023-04-24T07:55:45;5.65;;;4.20;;
52776;SDS011;38656;54.260;20.822;2023-04-24T07:58:12;9.45;;;4.63;;
52776;SDS011;38656;54.260;20.822;2023-04-24T08:00:38;5.15;;;4.15;;
52776;SDS011;38656;54.260;20.822;2023-04-24T08:03:04;4.78;;;3.90;;
52776;SDS011;38656;54.260;20.822;2023-04-24T08:05:30;6.50;;;4.53;;
52776;SDS011;38656;54.260;20.822;2023-04-24T08:07:57;5.05;;;4.50;;
52776;SDS011;38656;54.260;20.822;2023-04-24T08:10:24;6.72;;;4.35;;
52776;SDS011;38656;54.260;20.822;2023-04-24T08:12:51;5.22;;;4.35;;
52776;SDS011;38656;54.260;20.822;2023-04-24T08:15:17;10.48;;;4.82;;
52776;SDS011;38656;54.260;20.822;2023-04-24T08:17:43;4.50;;;4.20;;
52776;SDS011;38656;54.260;20.822;2023-04-24T08:20:10;9.57;;;4.95;;
52776;SDS011;38656;54.260;20.822;2023-04-24T08:22:42;5.38;;;4.00;;
52776;SDS011;38656;54.260;20.822;2023-04-24T08:25:08;5.80;;;4.85;;
52776;SDS011;38656;54.260;20.822;2023-04-24T08:27:36;8.05;;;4.88;;
52776;SDS011;38656;54.260;20.822;2023-04-24T08:30:02;6.28;;;4.78;;
52776;SDS011;38656;54.260;20.822;2023-04-24T08:32:29;4.72;;;4.32;;
52776;SDS011;38656;54.260;20.822;2023-04-24T08:34:56;4.40;;;3.97;;
52776;SDS011;38656;54.260;20.822;2023-04-24T08:37:23;5.00;;;4.35;;
52776;SDS011;38656;54.260;20.822;2023-04-24T08:39:50;19.02;;;4.95;;
52776;SDS011;38656;54.260;20.822;2023-04-24T08:42:17;7.03;;;4.38;;
52776;SDS011;38656;54.260;20.822;2023-04-24T08:44:44;13.85;;;4.60;;
52776;SDS011;38656;54.260;20.822;2023-04-24T08:47:11;7.15;;;4.93;;
52776;SDS011;38656;54.260;20.822;2023-04-24T08:49:38;4.57;;;4.18;;
52776;SDS011;38656;54.260;20.822;2023-04-24T08:52:04;5.32;;;4.55;;
52776;SDS011;38656;54.260;20.822;2023-04-24T08:54:31;11.38;;;4.93;;
52776;SDS011;38656;54.260;20.822;2023-04-24T08:57:00;6.72;;;4.45;;
52776;SDS011;38656;54.260;20.822;2023-04-24T08:59:28;11.70;;;5.03;;
52776;SDS011;38656;54.260;20.822;2023-04-24T09:01:59;12.25;;;6.03;;
52776;SDS011;38656;54.260;20.822;2023-04-24T09:04:27;15.40;;;8.35;;
52776;SDS011;38656;54.260;20.822;2023-04-24T09:06:55;10.23;;;6.00;;
52776;SDS011;38656;54.260;20.822;2023-04-24T09:09:23;9.77;;;4.43;;
52776;SDS011;38656;54.260;20.822;2023-04-24T09:11:50;6.35;;;4.78;;
52776;SDS011;38656;54.260;20.822;2023-04-24T09:14:19;5.68;;;4.50;;
52776;SDS011;38656;54.260;20.822;2023-04-24T09:16:46;7.35;;;5.10;;
52776;SDS011;38656;54.260;20.822;2023-04-24T09:19:12;4.70;;;3.65;;
52776;SDS011;38656;54.260;20.822;2023-04-24T09:21:39;7.18;;;4.82;;
52776;SDS011;38656;54.260;20.822;2023-04-24T09:24:07;4.93;;;3.28;;
52776;SDS011;38656;54.260;20.822;2023-04-24T09:26:42;6.80;;;3.33;;
52776;SDS011;38656;54.260;20.822;2023-04-24T09:29:13;4.30;;;3.75;;
52776;SDS011;38656;54.260;20.822;2023-04-24T09:31:41;4.32;;;3.80;;
52776;SDS011;38656;54.260;20.822;2023-04-24T09:34:08;6.43;;;2.70;;
52776;SDS011;38656;54.260;20.822;2023-04-24T09:36:35;2.67;;;2.47;;
52776;SDS011;38656;54.260;20.822;2023-04-24T09:39:10;4.80;;;2.85;;
52776;SDS011;38656;54.260;20.822;2023-04-24T09:41:50;3.17;;;2.63;;
52776;SDS011;38656;54.260;20.822;2023-04-24T09:44:19;6.72;;;2.97;;
52776;SDS011;38656;54.260;20.822;2023-04-24T09:46:48;3.30;;;2.83;;
52776;SDS011;38656;54.260;20.822;2023-04-24T09:49:16;4.55;;;2.63;;
52776;SDS011;38656;54.260;20.822;2023-04-24T09:52:09;3.63;;;2.60;;
52776;SDS011;38656;54.260;20.822;2023-04-24T09:54:36;2.67;;;2.47;;
52776;SDS011;38656;54.260;20.822;2023-04-24T09:57:03;3.50;;;2.67;;
52776;SDS011;38656;54.260;20.822;2023-04-24T09:59:30;4.47;;;2.75;;
52776;SDS011;38656;54.260;20.822;2023-04-24T10:01:56;5.38;;;2.47;;
52776;SDS011;38656;54.260;20.822;2023-04-24T10:04:24;2.75;;;1.92;;
52776;SDS011;38656;54.260;20.822;2023-04-24T10:06:53;3.38;;;2.45;;
52776;SDS011;38656;54.260;20.822;2023-04-24T10:09:21;3.05;;;1.77;;
52776;SDS011;38656;54.260;20.822;2023-04-24T10:11:50;7.07;;;2.58;;
52776;SDS011;38656;54.260;20.822;2023-04-24T10:14:19;3.67;;;2.42;;
52776;SDS011;38656;54.260;20.822;2023-04-24T10:16:46;2.35;;;1.73;;
52776;SDS011;38656;54.260;20.822;2023-04-24T10:19:13;1.98;;;1.88;;
52776;SDS011;38656;54.260;20.822;2023-04-24T10:21:41;2.58;;;2.30;;
52776;SDS011;38656;54.260;20.822;2023-04-24T10:24:11;2.22;;;2.03;;
52776;SDS011;38656;54.260;20.822;2023-04-24T10:26:41;2.55;;;1.63;;
52776;SDS011;38656;54.260;20.822;2023-04-24T10:29:10;3.22;;;1.85;;
52776;SDS011;38656;54.260;20.822;2023-04-24T10:31:37;2.55;;;2.35;;
52776;SDS011;38656;54.260;20.822;2023-04-24T10:34:05;4.38;;;2.90;;
52776;SDS011;38656;54.260;20.822;2023-04-24T10:36:33;2.78;;;2.58;;
52776;SDS011;38656;54.260;20.822;2023-04-24T10:39:01;2.92;;;2.50;;
52776;SDS011;38656;54.260;20.822;2023-04-24T10:41:31;2.65;;;2.45;;
52776;SDS011;38656;54.260;20.822;2023-04-24T10:44:04;3.95;;;2.90;;
52776;SDS011;38656;54.260;20.822;2023-04-24T10:46:31;3.42;;;2.20;;
52776;SDS011;38656;54.260;20.822;2023-04-24T10:48:57;13.85;;;2.50;;
52776;SDS011;38656;54.260;20.822;2023-04-24T10:51:24;3.40;;;2.10;;
52776;SDS011;38656;54.260;20.822;2023-04-24T10:54:23;4.28;;;2.30;;
52776;SDS011;38656;54.260;20.822;2023-04-24T10:56:50;2.67;;;2.00;;
52776;SDS011;38656;54.260;20.822;2023-04-24T10:59:24;2.53;;;2.10;;
52776;SDS011;38656;54.260;20.822;2023-04-24T11:01:54;2.55;;;2.35;;
52776;SDS011;38656;54.260;20.822;2023-04-24T11:04:30;4.38;;;2.08;;
52776;SDS011;38656;54.260;20.822;2023-04-24T11:06:57;3.75;;;2.25;;
52776;SDS011;38656;54.260;20.822;2023-04-24T11:09:27;2.13;;;2.03;;
52776;SDS011;38656;54.260;20.822;2023-04-24T11:12:07;3.58;;;2.67;;
52776;SDS011;38656;54.260;20.822;2023-04-24T11:17:33;2.83;;;2.55;;
52776;SDS011;38656;54.260;20.822;2023-04-24T11:20:08;3.28;;;2.33;;
52776;SDS011;38656;54.260;20.822;2023-04-24T11:22:38;4.25;;;2.45;;
52776;SDS011;38656;54.260;20.822;2023-04-24T11:25:05;3.00;;;2.67;;
52776;SDS011;38656;54.260;20.822;2023-04-24T11:27:38;4.47;;;2.70;;
52776;SDS011;38656;54.260;20.822;2023-04-24T11:30:09;3.13;;;2.83;;
52776;SDS011;38656;54.260;20.822;2023-04-24T11:32:36;3.92;;;2.85;;
52776;SDS011;38656;54.260;20.822;2023-04-24T11:35:08;3.15;;;2.83;;
52776;SDS011;38656;54.260;20.822;2023-04-24T11:37:43;3.17;;;2.88;;
52776;SDS011;38656;54.260;20.822;2023-04-24T11:40:17;4.40;;;2.65;;
52776;SDS011;38656;54.260;20.822;2023-04-24T11:42:48;3.08;;;2.78;;
52776;SDS011;38656;54.260;20.822;2023-04-24T11:45:21;7.07;;;3.50;;
52776;SDS011;38656;54.260;20.822;2023-04-24T11:47:49;4.05;;;3.50;;
52776;SDS011;38656;54.260;20.822;2023-04-24T11:50:16;8.02;;;3.08;;
52776;SDS011;38656;54.260;20.822;2023-04-24T11:52:47;4.93;;;2.85;;
52776;SDS011;38656;54.260;20.822;2023-04-24T11:57:42;4.88;;;2.42;;
52776;SDS011;38656;54.260;20.822;2023-04-24T12:00:15;6.75;;;2.70;;
52776;SDS011;38656;54.260;20.822;2023-04-24T12:02:42;3.30;;;2.85;;
52776;SDS011;38656;54.260;20.822;2023-04-24T12:05:08;4.00;;;2.95;;
52776;SDS011;38656;54.260;20.822;2023-04-24T12:07:43;6.22;;;3.00;;
52776;SDS011;38656;54.260;20.822;2023-04-24T12:10:10;5.97;;;2.80;;
52776;SDS011;38656;54.260;20.822;2023-04-24T12:12:36;7.20;;;4.60;;
52776;SDS011;38656;54.260;20.822;2023-04-24T12:15:06;13.80;;;9.48;;
52776;SDS011;38656;54.260;20.822;2023-04-24T12:17:33;8.05;;;5.60;;
52776;SDS011;38656;54.260;20.822;2023-04-24T12:20:05;8.60;;;6.13;;
52776;SDS011;38656;54.260;20.822;2023-04-24T12:22:48;9.05;;;5.10;;
52776;SDS011;38656;54.260;20.822;2023-04-24T12:25:17;6.32;;;3.70;;
52776;SDS011;38656;54.260;20.822;2023-04-24T12:27:51;3.92;;;3.53;;
52776;SDS011;38656;54.260;20.822;2023-04-24T12:30:31;7.68;;;3.90;;
52776;SDS011;38656;54.260;20.822;2023-04-24T12:32:59;6.18;;;5.20;;
52776;SDS011;38656;54.260;20.822;2023-04-24T12:35:28;15.02;;;6.75;;
52776;SDS011;38656;54.260;20.822;2023-04-24T12:38:04;18.13;;;7.40;;
52776;SDS011;38656;54.260;20.822;2023-04-24T12:40:35;15.35;;;6.88;;
52776;SDS011;38656;54.260;20.822;2023-04-24T12:43:01;16.60;;;6.50;;
52776;SDS011;38656;54.260;20.822;2023-04-24T12:45:27;7.10;;;4.40;;
52776;SDS011;38656;54.260;20.822;2023-04-24T12:47:53;9.55;;;5.10;;
52776;SDS011;38656;54.260;20.822;2023-04-24T12:50:20;8.15;;;4.90;;
52776;SDS011;38656;54.260;20.822;2023-04-24T12:52:46;11.32;;;6.55;;
52776;SDS011;38656;54.260;20.822;2023-04-24T12:55:12;9.30;;;6.72;;
52776;SDS011;38656;54.260;20.822;2023-04-24T12:57:39;8.70;;;4.85;;
52776;SDS011;38656;54.260;20.822;2023-04-24T13:00:06;8.57;;;4.63;;
52776;SDS011;38656;54.260;20.822;2023-04-24T13:02:33;19.77;;;12.68;;
52776;SDS011;38656;54.260;20.822;2023-04-24T13:04:59;12.30;;;8.20;;
52776;SDS011;38656;54.260;20.822;2023-04-24T13:07:26;12.65;;;9.45;;
52776;SDS011;38656;54.260;20.822;2023-04-24T13:09:53;20.80;;;16.60;;
52776;SDS011;38656;54.260;20.822;2023-04-24T13:12:21;11.25;;;8.55;;
52776;SDS011;38656;54.260;20.822;2023-04-24T13:14:48;26.65;;;16.98;;
52776;SDS011;38656;54.260;20.822;2023-04-24T13:17:15;13.10;;;7.90;;
52776;SDS011;38656;54.260;20.822;2023-04-24T13:19:42;19.63;;;12.90;;
52776;SDS011;38656;54.260;20.822;2023-04-24T13:22:10;118.40;;;73.80;;
52776;SDS011;38656;54.260;20.822;2023-04-24T13:24:37;33.67;;;30.10;;
52776;SDS011;38656;54.260;20.822;2023-04-24T13:27:05;13.18;;;11.63;;
52776;SDS011;38656;54.260;20.822;2023-04-24T13:29:32;9.70;;;8.80;;
52776;SDS011;38656;54.260;20.822;2023-04-24T13:31:59;13.27;;;8.75;;
52776;SDS011;38656;54.260;20.822;2023-04-24T13:34:25;15.75;;;10.88;;
52776;SDS011;38656;54.260;20.822;2023-04-24T13:36:55;11.52;;;8.63;;
52776;SDS011;38656;54.260;20.822;2023-04-24T13:39:23;12.25;;;10.55;;
52776;SDS011;38656;54.260;20.822;2023-04-24T13:41:50;32.05;;;13.68;;
52776;SDS011;38656;54.260;20.822;2023-04-24T13:44:17;52.25;;;41.95;;
52776;SDS011;38656;54.260;20.822;2023-04-24T13:46:45;35.00;;;28.05;;
52776;SDS011;38656;54.260;20.822;2023-04-24T13:49:13;19.15;;;14.15;;
52776;SDS011;38656;54.260;20.822;2023-04-24T13:51:40;12.38;;;10.50;;
52776;SDS011;38656;54.260;20.822;2023-04-24T13:54:07;16.92;;;11.27;;
52776;SDS011;38656;54.260;20.822;2023-04-24T13:56:34;79.45;;;54.95;;
52776;SDS011;38656;54.260;20.822;2023-04-24T13:59:00;29.75;;;23.55;;
52776;SDS011;38656;54.260;20.822;2023-04-24T14:01:27;21.48;;;18.95;;
52776;SDS011;38656;54.260;20.822;2023-04-24T14:03:53;33.60;;;26.73;;
52776;SDS011;38656;54.260;20.822;2023-04-24T14:06:20;23.10;;;17.55;;
52776;SDS011;38656;54.260;20.822;2023-04-24T14:08:48;10.65;;;8.45;;
52776;SDS011;38656;54.260;20.822;2023-04-24T14:11:15;16.55;;;13.70;;
52776;SDS011;38656;54.260;20.822;2023-04-24T14:13:42;16.10;;;13.23;;
52776;SDS011;38656;54.260;20.822;2023-04-24T14:16:10;8.30;;;7.40;;
52776;SDS011;38656;54.260;20.822;2023-04-24T14:18:37;5.20;;;4.18;;
52776;SDS011;38656;54.260;20.822;2023-04-24T14:21:03;7.72;;;5.53;;
52776;SDS011;38656;54.260;20.822;2023-04-24T14:23:30;8.55;;;5.13;;
52776;SDS011;38656;54.260;20.822;2023-04-24T14:25:57;7.00;;;5.10;;
52776;SDS011;38656;54.260;20.822;2023-04-24T14:28:23;6.53;;;5.63;;
52776;SDS011;38656;54.260;20.822;2023-04-24T14:30:51;7.00;;;5.90;;